sensor_id;sensor_type;location;lat;lon;timestamp;P1;durP1;ratioP1;P2;durP2;ratioP2
29280;SDS011;25048;49.590;11.026;2023-09-19T00:00:43;2.67;;;2.27;;
29280;SDS011;25048;49.590;11.026;2023-09-19T00:03:12;5.80;;;2.33;;
29280;SDS011;25048;49.590;11.026;2023-09-19T00:05:40;4.35;;;2.92;;
29280;SDS011;25048;49.590;11.026;2023-09-19T00:08:09;2.08;;;1.65;;
29280;SDS011;25048;49.590;11.026;2023-09-19T00:10:38;4.03;;;2.45;;
29280;SDS011;25048;49.590;11.026;2023-09-19T00:13:09;2.70;;;2.05;;
29280;SDS011;25048;49.590;11.026;2023-09-19T00:15:45;7.00;;;2.35;;
29280;SDS011;25048;49.590;11.026;2023-09-19T00:18:14;5.37;;;1.90;;
29280;SDS011;25048;49.590;11.026;2023-09-19T00:20:44;3.67;;;2.08;;
29280;SDS011;25048;49.590;11.026;2023-09-19T00:23:13;3.67;;;2.35;;
29280;SDS011;25048;49.590;11.026;2023-09-19T00:25:41;2.67;;;2.02;;
29280;SDS011;25048;49.590;11.026;2023-09-19T00:28:08;8.75;;;2.17;;
29280;SDS011;25048;49.590;11.026;2023-09-19T00:30:36;5.10;;;2.02;;
29280;SDS011;25048;49.590;11.026;2023-09-19T00:33:04;3.83;;;1.80;;
29280;SDS011;25048;49.590;11.026;2023-09-19T00:35:33;4.47;;;1.72;;
29280;SDS011;25048;49.590;11.026;2023-09-19T00:38:02;3.03;;;1.60;;
29280;SDS011;25048;49.590;11.026;2023-09-19T00:40:30;2.70;;;1.75;;
29280;SDS011;25048;49.590;11.026;2023-09-19T00:42:58;7.78;;;2.30;;
29280;SDS011;25048;49.590;11.026;2023-09-19T00:45:26;3.77;;;1.82;;
29280;SDS011;25048;49.590;11.026;2023-09-19T00:47:54;3.02;;;2.02;;
29280;SDS011;25048;49.590;11.026;2023-09-19T00:50:23;6.35;;;1.60;;
29280;SDS011;25048;49.590;11.026;2023-09-19T00:52:53;2.25;;;1.80;;
29280;SDS011;25048;49.590;11.026;2023-09-19T00:55:25;2.65;;;1.95;;
29280;SDS011;25048;49.590;11.026;2023-09-19T00:57:55;7.37;;;1.80;;
29280;SDS011;25048;49.590;11.026;2023-09-19T01:00:23;3.12;;;2.08;;
29280;SDS011;25048;49.590;11.026;2023-09-19T01:02:50;1.98;;;1.70;;
29280;SDS011;25048;49.590;11.026;2023-09-19T01:05:18;4.67;;;1.80;;
29280;SDS011;25048;49.590;11.026;2023-09-19T01:07:46;2.50;;;1.98;;
29280;SDS011;25048;49.590;11.026;2023-09-19T01:10:18;4.92;;;1.75;;
29280;SDS011;25048;49.590;11.026;2023-09-19T01:12:49;2.02;;;1.62;;
29280;SDS011;25048;49.590;11.026;2023-09-19T01:15:29;5.12;;;1.95;;
29280;SDS011;25048;49.590;11.026;2023-09-19T01:20:57;3.65;;;2.00;;
29280;SDS011;25048;49.590;11.026;2023-09-19T01:26:43;5.60;;;1.95;;
29280;SDS011;25048;49.590;11.026;2023-09-19T01:29:17;3.92;;;1.70;;
29280;SDS011;25048;49.590;11.026;2023-09-19T01:31:49;2.95;;;1.82;;
29280;SDS011;25048;49.590;11.026;2023-09-19T01:34:20;3.00;;;2.12;;
29280;SDS011;25048;49.590;11.026;2023-09-19T01:36:47;4.80;;;1.85;;
29280;SDS011;25048;49.590;11.026;2023-09-19T01:39:15;4.95;;;1.90;;
29280;SDS011;25048;49.590;11.026;2023-09-19T01:41:47;7.95;;;2.00;;
29280;SDS011;25048;49.590;11.026;2023-09-19T01:44:17;3.05;;;2.08;;
29280;SDS011;25048;49.590;11.026;2023-09-19T01:46:46;2.30;;;1.55;;
29280;SDS011;25048;49.590;11.026;2023-09-19T01:52:09;5.17;;;2.03;;
29280;SDS011;25048;49.590;11.026;2023-09-19T01:54:40;3.62;;;2.12;;
29280;SDS011;25048;49.590;11.026;2023-09-19T01:57:16;4.97;;;2.33;;
29280;SDS011;25048;49.590;11.026;2023-09-19T02:00:03;2.62;;;2.08;;
29280;SDS011;25048;49.590;11.026;2023-09-19T02:02:40;6.72;;;2.02;;
29280;SDS011;25048;49.590;11.026;2023-09-19T02:05:24;9.78;;;2.52;;
29280;SDS011;25048;49.590;11.026;2023-09-19T02:07:54;2.50;;;1.70;;
29280;SDS011;25048;49.590;11.026;2023-09-19T02:10:24;2.33;;;1.92;;
29280;SDS011;25048;49.590;11.026;2023-09-19T02:12:51;2.27;;;1.83;;
29280;SDS011;25048;49.590;11.026;2023-09-19T02:15:19;4.17;;;2.02;;
29280;SDS011;25048;49.590;11.026;2023-09-19T02:17:48;5.35;;;2.10;;
29280;SDS011;25048;49.590;11.026;2023-09-19T02:20:15;2.52;;;1.92;;
29280;SDS011;25048;49.590;11.026;2023-09-19T02:22:44;3.33;;;2.02;;
29280;SDS011;25048;49.590;11.026;2023-09-19T02:25:12;1.70;;;1.60;;
29280;SDS011;25048;49.590;11.026;2023-09-19T02:27:39;6.23;;;2.07;;
29280;SDS011;25048;49.590;11.026;2023-09-19T02:30:07;2.15;;;1.67;;
29280;SDS011;25048;49.590;11.026;2023-09-19T02:32:35;11.43;;;2.45;;
29280;SDS011;25048;49.590;11.026;2023-09-19T02:35:04;5.67;;;1.98;;
29280;SDS011;25048;49.590;11.026;2023-09-19T02:37:33;8.40;;;2.27;;
29280;SDS011;25048;49.590;11.026;2023-09-19T02:40:00;3.45;;;1.90;;
29280;SDS011;25048;49.590;11.026;2023-09-19T02:42:28;6.85;;;1.92;;
29280;SDS011;25048;49.590;11.026;2023-09-19T02:44:56;5.28;;;2.47;;
29280;SDS011;25048;49.590;11.026;2023-09-19T02:47:24;5.20;;;2.52;;
29280;SDS011;25048;49.590;11.026;2023-09-19T02:49:53;7.85;;;2.00;;
29280;SDS011;25048;49.590;11.026;2023-09-19T02:52:20;3.40;;;1.65;;
29280;SDS011;25048;49.590;11.026;2023-09-19T02:54:48;4.00;;;1.80;;
29280;SDS011;25048;49.590;11.026;2023-09-19T02:57:17;9.53;;;2.53;;
29280;SDS011;25048;49.590;11.026;2023-09-19T02:59:45;8.13;;;1.72;;
29280;SDS011;25048;49.590;11.026;2023-09-19T03:02:13;4.83;;;1.72;;
29280;SDS011;25048;49.590;11.026;2023-09-19T03:04:41;2.17;;;1.62;;
29280;SDS011;25048;49.590;11.026;2023-09-19T03:07:10;1.95;;;1.70;;
29280;SDS011;25048;49.590;11.026;2023-09-19T03:09:38;2.47;;;2.00;;
29280;SDS011;25048;49.590;11.026;2023-09-19T03:12:06;2.60;;;1.75;;
29280;SDS011;25048;49.590;11.026;2023-09-19T03:14:34;1.60;;;1.45;;
29280;SDS011;25048;49.590;11.026;2023-09-19T03:17:01;6.58;;;1.70;;
29280;SDS011;25048;49.590;11.026;2023-09-19T03:19:32;1.57;;;1.40;;
29280;SDS011;25048;49.590;11.026;2023-09-19T03:21:59;4.85;;;1.98;;
29280;SDS011;25048;49.590;11.026;2023-09-19T03:24:28;3.47;;;1.42;;
29280;SDS011;25048;49.590;11.026;2023-09-19T03:26:57;7.83;;;1.77;;
29280;SDS011;25048;49.590;11.026;2023-09-19T03:29:25;2.98;;;1.52;;
29280;SDS011;25048;49.590;11.026;2023-09-19T03:31:52;2.42;;;1.40;;
29280;SDS011;25048;49.590;11.026;2023-09-19T03:34:20;4.67;;;1.57;;
29280;SDS011;25048;49.590;11.026;2023-09-19T03:36:48;6.35;;;1.82;;
29280;SDS011;25048;49.590;11.026;2023-09-19T03:39:15;4.17;;;1.45;;
29280;SDS011;25048;49.590;11.026;2023-09-19T03:41:43;2.27;;;1.45;;
29280;SDS011;25048;49.590;11.026;2023-09-19T03:44:10;2.75;;;1.45;;
29280;SDS011;25048;49.590;11.026;2023-09-19T03:46:38;2.00;;;1.62;;
29280;SDS011;25048;49.590;11.026;2023-09-19T03:49:05;3.62;;;1.67;;
29280;SDS011;25048;49.590;11.026;2023-09-19T03:51:34;4.78;;;1.62;;
29280;SDS011;25048;49.590;11.026;2023-09-19T03:54:03;1.82;;;1.12;;
29280;SDS011;25048;49.590;11.026;2023-09-19T03:56:30;2.37;;;1.40;;
29280;SDS011;25048;49.590;11.026;2023-09-19T03:58:58;3.70;;;1.40;;
29280;SDS011;25048;49.590;11.026;2023-09-19T04:01:25;2.83;;;1.30;;
29280;SDS011;25048;49.590;11.026;2023-09-19T04:03:54;3.10;;;1.25;;
29280;SDS011;25048;49.590;11.026;2023-09-19T04:06:22;2.55;;;1.50;;
29280;SDS011;25048;49.590;11.026;2023-09-19T04:08:50;4.20;;;1.42;;
29280;SDS011;25048;49.590;11.026;2023-09-19T04:11:18;3.20;;;1.67;;
29280;SDS011;25048;49.590;11.026;2023-09-19T04:13:45;2.80;;;1.67;;
29280;SDS011;25048;49.590;11.026;2023-09-19T04:16:13;2.47;;;1.30;;
29280;SDS011;25048;49.590;11.026;2023-09-19T04:18:40;2.10;;;1.77;;
29280;SDS011;25048;49.590;11.026;2023-09-19T04:21:08;5.20;;;1.80;;
29280;SDS011;25048;49.590;11.026;2023-09-19T04:23:35;5.58;;;2.22;;
29280;SDS011;25048;49.590;11.026;2023-09-19T04:26:03;5.43;;;1.83;;
29280;SDS011;25048;49.590;11.026;2023-09-19T04:28:31;3.40;;;1.60;;
29280;SDS011;25048;49.590;11.026;2023-09-19T04:31:00;4.40;;;1.77;;
29280;SDS011;25048;49.590;11.026;2023-09-19T04:33:27;3.83;;;1.82;;
29280;SDS011;25048;49.590;11.026;2023-09-19T04:35:55;7.95;;;2.20;;
29280;SDS011;25048;49.590;11.026;2023-09-19T04:38:22;2.58;;;1.40;;
29280;SDS011;25048;49.590;11.026;2023-09-19T04:40:50;4.58;;;1.90;;
29280;SDS011;25048;49.590;11.026;2023-09-19T04:43:21;4.58;;;1.70;;
29280;SDS011;25048;49.590;11.026;2023-09-19T04:45:49;2.83;;;1.42;;
29280;SDS011;25048;49.590;11.026;2023-09-19T04:48:19;4.15;;;1.62;;
29280;SDS011;25048;49.590;11.026;2023-09-19T04:50:48;1.95;;;1.47;;
29280;SDS011;25048;49.590;11.026;2023-09-19T04:53:17;2.50;;;1.65;;
29280;SDS011;25048;49.590;11.026;2023-09-19T04:55:50;1.62;;;1.32;;
29280;SDS011;25048;49.590;11.026;2023-09-19T04:58:21;4.15;;;1.85;;
29280;SDS011;25048;49.590;11.026;2023-09-19T05:00:49;3.15;;;1.70;;
29280;SDS011;25048;49.590;11.026;2023-09-19T05:03:17;1.75;;;1.42;;
29280;SDS011;25048;49.590;11.026;2023-09-19T05:05:45;4.35;;;1.85;;
29280;SDS011;25048;49.590;11.026;2023-09-19T05:08:13;4.67;;;1.85;;
29280;SDS011;25048;49.590;11.026;2023-09-19T05:10:41;2.67;;;1.70;;
29280;SDS011;25048;49.590;11.026;2023-09-19T05:13:09;4.25;;;1.52;;
29280;SDS011;25048;49.590;11.026;2023-09-19T05:15:37;3.75;;;1.65;;
29280;SDS011;25048;49.590;11.026;2023-09-19T05:18:05;4.65;;;1.65;;
29280;SDS011;25048;49.590;11.026;2023-09-19T05:20:33;3.15;;;1.82;;
29280;SDS011;25048;49.590;11.026;2023-09-19T05:23:03;6.00;;;1.87;;
29280;SDS011;25048;49.590;11.026;2023-09-19T05:25:34;2.77;;;1.65;;
29280;SDS011;25048;49.590;11.026;2023-09-19T05:28:05;2.67;;;1.60;;
29280;SDS011;25048;49.590;11.026;2023-09-19T05:30:33;6.83;;;1.50;;
29280;SDS011;25048;49.590;11.026;2023-09-19T05:33:05;3.95;;;1.70;;
29280;SDS011;25048;49.590;11.026;2023-09-19T05:35:33;3.75;;;1.95;;
29280;SDS011;25048;49.590;11.026;2023-09-19T05:38:03;4.65;;;1.60;;
29280;SDS011;25048;49.590;11.026;2023-09-19T05:40:32;2.58;;;1.82;;
29280;SDS011;25048;49.590;11.026;2023-09-19T05:43:01;4.40;;;1.90;;
29280;SDS011;25048;49.590;11.026;2023-09-19T05:45:30;2.70;;;1.57;;
29280;SDS011;25048;49.590;11.026;2023-09-19T05:48:05;4.90;;;1.77;;
29280;SDS011;25048;49.590;11.026;2023-09-19T05:50:30;2.62;;;1.75;;
29280;SDS011;25048;49.590;11.026;2023-09-19T05:52:57;3.58;;;1.72;;
29280;SDS011;25048;49.590;11.026;2023-09-19T05:55:25;2.52;;;1.57;;
29280;SDS011;25048;49.590;11.026;2023-09-19T05:57:54;1.95;;;1.52;;
29280;SDS011;25048;49.590;11.026;2023-09-19T06:00:22;3.27;;;1.45;;
29280;SDS011;25048;49.590;11.026;2023-09-19T06:02:56;3.00;;;1.80;;
29280;SDS011;25048;49.590;11.026;2023-09-19T06:05:20;3.27;;;1.50;;
29280;SDS011;25048;49.590;11.026;2023-09-19T06:07:48;4.28;;;1.57;;
29280;SDS011;25048;49.590;11.026;2023-09-19T06:10:18;4.90;;;1.50;;
29280;SDS011;25048;49.590;11.026;2023-09-19T06:12:47;5.47;;;1.55;;
29280;SDS011;25048;49.590;11.026;2023-09-19T06:15:15;1.87;;;1.67;;
29280;SDS011;25048;49.590;11.026;2023-09-19T06:17:48;2.25;;;1.70;;
29280;SDS011;25048;49.590;11.026;2023-09-19T06:20:16;3.87;;;1.62;;
29280;SDS011;25048;49.590;11.026;2023-09-19T06:22:45;2.30;;;1.50;;
29280;SDS011;25048;49.590;11.026;2023-09-19T06:25:13;1.90;;;1.60;;
29280;SDS011;25048;49.590;11.026;2023-09-19T06:27:43;2.92;;;1.40;;
29280;SDS011;25048;49.590;11.026;2023-09-19T06:30:10;2.33;;;1.42;;
29280;SDS011;25048;49.590;11.026;2023-09-19T06:32:39;5.03;;;1.65;;
29280;SDS011;25048;49.590;11.026;2023-09-19T06:35:11;5.75;;;1.50;;
29280;SDS011;25048;49.590;11.026;2023-09-19T06:37:39;4.40;;;1.75;;
29280;SDS011;25048;49.590;11.026;2023-09-19T06:40:08;3.25;;;1.55;;
29280;SDS011;25048;49.590;11.026;2023-09-19T06:42:43;3.58;;;1.50;;
29280;SDS011;25048;49.590;11.026;2023-09-19T06:45:13;3.10;;;1.70;;
29280;SDS011;25048;49.590;11.026;2023-09-19T06:47:48;2.00;;;1.60;;
29280;SDS011;25048;49.590;11.026;2023-09-19T06:50:17;3.17;;;1.42;;
29280;SDS011;25048;49.590;11.026;2023-09-19T06:52:46;3.08;;;1.92;;
29280;SDS011;25048;49.590;11.026;2023-09-19T06:55:16;3.37;;;1.65;;
29280;SDS011;25048;49.590;11.026;2023-09-19T06:57:49;5.25;;;1.75;;
29280;SDS011;25048;49.590;11.026;2023-09-19T07:00:18;7.90;;;1.47;;
29280;SDS011;25048;49.590;11.026;2023-09-19T07:02:57;2.00;;;1.75;;
29280;SDS011;25048;49.590;11.026;2023-09-19T07:05:27;1.70;;;1.37;;
29280;SDS011;25048;49.590;11.026;2023-09-19T07:07:55;4.22;;;1.60;;
29280;SDS011;25048;49.590;11.026;2023-09-19T07:10:24;4.05;;;1.67;;
29280;SDS011;25048;49.590;11.026;2023-09-19T07:12:54;3.90;;;1.77;;
29280;SDS011;25048;49.590;11.026;2023-09-19T07:15:24;2.00;;;1.40;;
29280;SDS011;25048;49.590;11.026;2023-09-19T07:17:55;5.12;;;1.57;;
29280;SDS011;25048;49.590;11.026;2023-09-19T07:20:23;3.35;;;1.32;;
29280;SDS011;25048;49.590;11.026;2023-09-19T07:22:55;4.42;;;1.50;;
29280;SDS011;25048;49.590;11.026;2023-09-19T07:25:25;2.83;;;1.60;;
29280;SDS011;25048;49.590;11.026;2023-09-19T07:27:54;3.35;;;1.75;;
29280;SDS011;25048;49.590;11.026;2023-09-19T07:30:24;2.75;;;1.65;;
29280;SDS011;25048;49.590;11.026;2023-09-19T07:32:52;4.62;;;1.80;;
29280;SDS011;25048;49.590;11.026;2023-09-19T07:35:20;1.95;;;1.32;;
29280;SDS011;25048;49.590;11.026;2023-09-19T07:37:48;4.90;;;1.57;;
29280;SDS011;25048;49.590;11.026;2023-09-19T07:40:17;5.10;;;1.70;;
29280;SDS011;25048;49.590;11.026;2023-09-19T07:42:47;4.92;;;1.67;;
29280;SDS011;25048;49.590;11.026;2023-09-19T07:45:16;4.87;;;1.47;;
29280;SDS011;25048;49.590;11.026;2023-09-19T07:47:49;8.15;;;1.80;;
29280;SDS011;25048;49.590;11.026;2023-09-19T07:50:13;1.90;;;1.35;;
29280;SDS011;25048;49.590;11.026;2023-09-19T07:52:44;3.27;;;1.60;;
29280;SDS011;25048;49.590;11.026;2023-09-19T07:55:12;3.55;;;1.50;;
29280;SDS011;25048;49.590;11.026;2023-09-19T07:57:42;2.02;;;1.35;;
29280;SDS011;25048;49.590;11.026;2023-09-19T08:00:10;2.90;;;1.67;;
29280;SDS011;25048;49.590;11.026;2023-09-19T08:02:38;1.87;;;1.40;;
29280;SDS011;25048;49.590;11.026;2023-09-19T08:05:10;3.95;;;1.57;;
29280;SDS011;25048;49.590;11.026;2023-09-19T08:07:41;6.17;;;2.10;;
29280;SDS011;25048;49.590;11.026;2023-09-19T08:10:11;1.92;;;1.45;;
29280;SDS011;25048;49.590;11.026;2023-09-19T08:12:42;3.67;;;1.25;;
29280;SDS011;25048;49.590;11.026;2023-09-19T08:15:14;2.65;;;1.30;;
29280;SDS011;25048;49.590;11.026;2023-09-19T08:17:42;1.60;;;1.40;;
29280;SDS011;25048;49.590;11.026;2023-09-19T08:20:10;3.37;;;1.45;;
29280;SDS011;25048;49.590;11.026;2023-09-19T08:22:49;5.45;;;1.40;;
29280;SDS011;25048;49.590;11.026;2023-09-19T08:25:19;3.05;;;1.20;;
29280;SDS011;25048;49.590;11.026;2023-09-19T08:27:47;5.53;;;1.55;;
29280;SDS011;25048;49.590;11.026;2023-09-19T08:30:17;1.57;;;1.20;;
29280;SDS011;25048;49.590;11.026;2023-09-19T08:32:59;4.78;;;1.10;;
29280;SDS011;25048;49.590;11.026;2023-09-19T08:35:29;3.55;;;1.25;;
29280;SDS011;25048;49.590;11.026;2023-09-19T08:37:56;4.05;;;1.20;;
29280;SDS011;25048;49.590;11.026;2023-09-19T08:40:26;2.00;;;1.20;;
29280;SDS011;25048;49.590;11.026;2023-09-19T08:42:55;4.58;;;1.35;;
29280;SDS011;25048;49.590;11.026;2023-09-19T08:45:24;2.83;;;1.20;;
29280;SDS011;25048;49.590;11.026;2023-09-19T08:50:32;5.45;;;1.40;;
29280;SDS011;25048;49.590;11.026;2023-09-19T08:53:04;3.55;;;1.22;;
29280;SDS011;25048;49.590;11.026;2023-09-19T08:55:33;3.62;;;1.22;;
29280;SDS011;25048;49.590;11.026;2023-09-19T08:58:03;2.75;;;1.10;;
29280;SDS011;25048;49.590;11.026;2023-09-19T09:00:32;1.80;;;1.22;;
29280;SDS011;25048;49.590;11.026;2023-09-19T09:03:01;1.30;;;1.10;;
29280;SDS011;25048;49.590;11.026;2023-09-19T09:05:32;2.50;;;1.65;;
29280;SDS011;25048;49.590;11.026;2023-09-19T09:08:02;3.17;;;1.20;;
29280;SDS011;25048;49.590;11.026;2023-09-19T09:10:32;1.90;;;1.30;;
29280;SDS011;25048;49.590;11.026;2023-09-19T09:12:59;1.47;;;1.07;;
29280;SDS011;25048;49.590;11.026;2023-09-19T09:15:28;2.98;;;1.00;;
29280;SDS011;25048;49.590;11.026;2023-09-19T09:17:58;1.72;;;1.00;;
29280;SDS011;25048;49.590;11.026;2023-09-19T09:20:26;4.05;;;1.30;;
29280;SDS011;25048;49.590;11.026;2023-09-19T09:22:54;2.65;;;1.20;;
29280;SDS011;25048;49.590;11.026;2023-09-19T09:25:46;1.70;;;1.30;;
29280;SDS011;25048;49.590;11.026;2023-09-19T09:28:23;1.12;;;0.85;;
29280;SDS011;25048;49.590;11.026;2023-09-19T09:30:52;3.20;;;1.00;;
29280;SDS011;25048;49.590;11.026;2023-09-19T09:33:20;2.70;;;1.52;;
29280;SDS011;25048;49.590;11.026;2023-09-19T09:35:49;0.93;;;0.90;;
29280;SDS011;25048;49.590;11.026;2023-09-19T09:38:24;3.40;;;1.20;;
29280;SDS011;25048;49.590;11.026;2023-09-19T09:40:57;3.47;;;1.32;;
29280;SDS011;25048;49.590;11.026;2023-09-19T09:43:33;1.40;;;1.17;;
29280;SDS011;25048;49.590;11.026;2023-09-19T09:46:06;2.08;;;1.05;;
29280;SDS011;25048;49.590;11.026;2023-09-19T09:48:59;1.90;;;1.10;;
29280;SDS011;25048;49.590;11.026;2023-09-19T09:51:42;2.40;;;1.20;;
29280;SDS011;25048;49.590;11.026;2023-09-19T09:54:15;3.80;;;1.17;;
29280;SDS011;25048;49.590;11.026;2023-09-19T09:56:56;2.60;;;1.17;;
29280;SDS011;25048;49.590;11.026;2023-09-19T10:02:34;4.00;;;0.82;;
29280;SDS011;25048;49.590;11.026;2023-09-19T10:05:00;2.10;;;1.02;;
29280;SDS011;25048;49.590;11.026;2023-09-19T10:07:55;2.45;;;1.07;;
29280;SDS011;25048;49.590;11.026;2023-09-19T10:10:33;2.98;;;0.90;;
29280;SDS011;25048;49.590;11.026;2023-09-19T10:13:03;2.20;;;1.02;;
29280;SDS011;25048;49.590;11.026;2023-09-19T10:15:33;2.87;;;0.90;;
29280;SDS011;25048;49.590;11.026;2023-09-19T10:18:04;3.27;;;1.05;;
29280;SDS011;25048;49.590;11.026;2023-09-19T10:20:33;2.58;;;1.30;;
29280;SDS011;25048;49.590;11.026;2023-09-19T10:23:10;2.80;;;1.02;;
29280;SDS011;25048;49.590;11.026;2023-09-19T10:25:38;3.80;;;1.42;;
29280;SDS011;25048;49.590;11.026;2023-09-19T10:28:08;3.27;;;1.40;;
29280;SDS011;25048;49.590;11.026;2023-09-19T10:30:43;3.42;;;1.00;;
29280;SDS011;25048;49.590;11.026;2023-09-19T10:33:13;4.62;;;1.42;;
29280;SDS011;25048;49.590;11.026;2023-09-19T10:35:46;1.45;;;1.20;;
29280;SDS011;25048;49.590;11.026;2023-09-19T10:38:17;1.25;;;1.00;;
29280;SDS011;25048;49.590;11.026;2023-09-19T10:40:52;2.67;;;1.25;;
29280;SDS011;25048;49.590;11.026;2023-09-19T10:43:18;2.00;;;1.02;;
29280;SDS011;25048;49.590;11.026;2023-09-19T10:45:48;2.25;;;1.55;;
29280;SDS011;25048;49.590;11.026;2023-09-19T10:48:18;2.15;;;1.15;;
29280;SDS011;25048;49.590;11.026;2023-09-19T10:51:08;1.52;;;1.02;;
29280;SDS011;25048;49.590;11.026;2023-09-19T10:53:47;5.45;;;2.00;;
29280;SDS011;25048;49.590;11.026;2023-09-19T10:56:35;3.70;;;1.20;;
29280;SDS011;25048;49.590;11.026;2023-09-19T10:59:14;4.65;;;1.10;;
29280;SDS011;25048;49.590;11.026;2023-09-19T11:01:47;3.98;;;1.25;;
29280;SDS011;25048;49.590;11.026;2023-09-19T11:04:21;1.47;;;1.20;;
29280;SDS011;25048;49.590;11.026;2023-09-19T11:07:07;5.03;;;1.80;;
29280;SDS011;25048;49.590;11.026;2023-09-19T11:09:51;4.12;;;1.30;;
29280;SDS011;25048;49.590;11.026;2023-09-19T11:15:04;2.45;;;1.40;;
29280;SDS011;25048;49.590;11.026;2023-09-19T11:17:33;3.83;;;1.20;;
29280;SDS011;25048;49.590;11.026;2023-09-19T11:30:41;5.15;;;1.10;;
29280;SDS011;25048;49.590;11.026;2023-09-19T11:36:00;2.77;;;1.30;;
29280;SDS011;25048;49.590;11.026;2023-09-19T11:39:09;1.52;;;1.10;;
29280;SDS011;25048;49.590;11.026;2023-09-19T11:43:51;4.45;;;1.37;;
29280;SDS011;25048;49.590;11.026;2023-09-19T11:46:24;2.37;;;1.10;;
29280;SDS011;25048;49.590;11.026;2023-09-19T11:48:53;5.75;;;1.57;;
29280;SDS011;25048;49.590;11.026;2023-09-19T11:51:23;3.85;;;1.47;;
29280;SDS011;25048;49.590;11.026;2023-09-19T11:53:55;2.60;;;1.15;;
29280;SDS011;25048;49.590;11.026;2023-09-19T11:56:27;2.17;;;1.10;;
29280;SDS011;25048;49.590;11.026;2023-09-19T11:58:55;4.65;;;1.20;;
29280;SDS011;25048;49.590;11.026;2023-09-19T12:01:28;3.30;;;1.20;;
29280;SDS011;25048;49.590;11.026;2023-09-19T12:03:57;2.05;;;1.10;;
29280;SDS011;25048;49.590;11.026;2023-09-19T12:06:25;2.92;;;1.30;;
29280;SDS011;25048;49.590;11.026;2023-09-19T12:08:55;7.50;;;1.30;;
29280;SDS011;25048;49.590;11.026;2023-09-19T12:11:29;1.98;;;1.10;;
29280;SDS011;25048;49.590;11.026;2023-09-19T12:13:59;2.92;;;1.10;;
29280;SDS011;25048;49.590;11.026;2023-09-19T12:16:27;6.05;;;1.15;;
29280;SDS011;25048;49.590;11.026;2023-09-19T12:18:59;2.40;;;1.50;;
29280;SDS011;25048;49.590;11.026;2023-09-19T12:21:30;6.05;;;1.00;;
29280;SDS011;25048;49.590;11.026;2023-09-19T12:23:59;2.37;;;1.00;;
29280;SDS011;25048;49.590;11.026;2023-09-19T12:26:38;2.25;;;1.15;;
29280;SDS011;25048;49.590;11.026;2023-09-19T12:29:13;4.20;;;0.90;;
29280;SDS011;25048;49.590;11.026;2023-09-19T12:31:49;2.83;;;0.90;;
29280;SDS011;25048;49.590;11.026;2023-09-19T12:34:23;3.90;;;1.30;;
29280;SDS011;25048;49.590;11.026;2023-09-19T12:37:05;1.37;;;0.90;;
29280;SDS011;25048;49.590;11.026;2023-09-19T12:39:43;4.12;;;1.50;;
29280;SDS011;25048;49.590;11.026;2023-09-19T12:42:08;6.33;;;1.20;;
29280;SDS011;25048;49.590;11.026;2023-09-19T12:44:39;3.65;;;1.12;;
29280;SDS011;25048;49.590;11.026;2023-09-19T12:47:09;3.92;;;1.37;;
29280;SDS011;25048;49.590;11.026;2023-09-19T12:50:04;2.62;;;1.17;;
29280;SDS011;25048;49.590;11.026;2023-09-19T12:52:24;1.77;;;1.17;;
29280;SDS011;25048;49.590;11.026;2023-09-19T12:54:52;2.25;;;1.10;;
29280;SDS011;25048;49.590;11.026;2023-09-19T12:57:23;5.62;;;1.30;;
29280;SDS011;25048;49.590;11.026;2023-09-19T12:59:52;3.90;;;1.32;;
29280;SDS011;25048;49.590;11.026;2023-09-19T13:02:20;2.85;;;1.15;;
29280;SDS011;25048;49.590;11.026;2023-09-19T13:04:52;1.67;;;1.10;;
29280;SDS011;25048;49.590;11.026;2023-09-19T13:10:13;2.08;;;1.20;;
29280;SDS011;25048;49.590;11.026;2023-09-19T13:12:42;3.62;;;1.07;;
29280;SDS011;25048;49.590;11.026;2023-09-19T13:15:13;3.87;;;1.12;;
29280;SDS011;25048;49.590;11.026;2023-09-19T13:17:49;3.62;;;2.00;;
29280;SDS011;25048;49.590;11.026;2023-09-19T13:20:25;2.00;;;1.17;;
29280;SDS011;25048;49.590;11.026;2023-09-19T13:22:54;2.47;;;1.10;;
29280;SDS011;25048;49.590;11.026;2023-09-19T13:25:23;2.15;;;1.20;;
29280;SDS011;25048;49.590;11.026;2023-09-19T13:27:52;2.67;;;1.20;;
29280;SDS011;25048;49.590;11.026;2023-09-19T13:30:26;1.72;;;1.32;;
29280;SDS011;25048;49.590;11.026;2023-09-19T13:32:52;2.60;;;1.10;;
29280;SDS011;25048;49.590;11.026;2023-09-19T13:35:21;2.75;;;1.10;;
29280;SDS011;25048;49.590;11.026;2023-09-19T13:37:48;4.05;;;1.82;;
29280;SDS011;25048;49.590;11.026;2023-09-19T13:40:17;3.08;;;1.35;;
29280;SDS011;25048;49.590;11.026;2023-09-19T13:42:45;2.52;;;1.15;;
29280;SDS011;25048;49.590;11.026;2023-09-19T13:45:13;2.67;;;1.05;;
29280;SDS011;25048;49.590;11.026;2023-09-19T13:47:42;4.78;;;1.40;;
29280;SDS011;25048;49.590;11.026;2023-09-19T13:50:09;2.45;;;1.30;;
29280;SDS011;25048;49.590;11.026;2023-09-19T13:52:37;2.02;;;1.30;;
29280;SDS011;25048;49.590;11.026;2023-09-19T13:55:04;2.72;;;1.22;;
29280;SDS011;25048;49.590;11.026;2023-09-19T13:57:32;1.95;;;1.10;;
29280;SDS011;25048;49.590;11.026;2023-09-19T14:00:00;4.37;;;1.40;;
29280;SDS011;25048;49.590;11.026;2023-09-19T14:02:28;1.82;;;1.42;;
29280;SDS011;25048;49.590;11.026;2023-09-19T14:04:56;3.52;;;1.22;;
29280;SDS011;25048;49.590;11.026;2023-09-19T14:07:23;2.60;;;1.25;;
29280;SDS011;25048;49.590;11.026;2023-09-19T14:09:51;2.75;;;1.10;;
29280;SDS011;25048;49.590;11.026;2023-09-19T14:12:18;2.20;;;1.12;;
29280;SDS011;25048;49.590;11.026;2023-09-19T14:14:46;3.33;;;1.20;;
29280;SDS011;25048;49.590;11.026;2023-09-19T14:17:15;2.65;;;1.20;;
29280;SDS011;25048;49.590;11.026;2023-09-19T14:19:43;4.50;;;1.22;;
29280;SDS011;25048;49.590;11.026;2023-09-19T14:22:11;4.25;;;1.47;;
29280;SDS011;25048;49.590;11.026;2023-09-19T14:24:40;2.10;;;1.10;;
29280;SDS011;25048;49.590;11.026;2023-09-19T14:27:07;5.53;;;1.07;;
29280;SDS011;25048;49.590;11.026;2023-09-19T14:29:35;9.68;;;1.45;;
29280;SDS011;25048;49.590;11.026;2023-09-19T14:32:03;2.00;;;1.37;;
29280;SDS011;25048;49.590;11.026;2023-09-19T14:34:31;2.27;;;1.50;;
29280;SDS011;25048;49.590;11.026;2023-09-19T14:36:58;5.85;;;1.30;;
29280;SDS011;25048;49.590;11.026;2023-09-19T14:39:26;2.25;;;1.50;;
29280;SDS011;25048;49.590;11.026;2023-09-19T14:41:54;1.40;;;0.90;;
29280;SDS011;25048;49.590;11.026;2023-09-19T14:44:22;2.15;;;1.10;;
29280;SDS011;25048;49.590;11.026;2023-09-19T14:46:49;4.47;;;1.75;;
29280;SDS011;25048;49.590;11.026;2023-09-19T14:49:17;2.08;;;1.00;;
29280;SDS011;25048;49.590;11.026;2023-09-19T14:51:44;1.35;;;0.90;;
29280;SDS011;25048;49.590;11.026;2023-09-19T14:54:13;2.98;;;1.00;;
29280;SDS011;25048;49.590;11.026;2023-09-19T14:56:43;1.77;;;1.27;;
29280;SDS011;25048;49.590;11.026;2023-09-19T14:59:11;2.60;;;1.30;;
29280;SDS011;25048;49.590;11.026;2023-09-19T15:01:38;3.05;;;1.10;;
29280;SDS011;25048;49.590;11.026;2023-09-19T15:04:06;2.47;;;1.10;;
29280;SDS011;25048;49.590;11.026;2023-09-19T15:06:34;1.47;;;0.98;;
29280;SDS011;25048;49.590;11.026;2023-09-19T15:09:02;1.55;;;0.95;;
29280;SDS011;25048;49.590;11.026;2023-09-19T15:11:30;2.95;;;1.07;;
29280;SDS011;25048;49.590;11.026;2023-09-19T15:13:58;3.95;;;1.00;;
29280;SDS011;25048;49.590;11.026;2023-09-19T15:16:25;3.37;;;1.15;;
29280;SDS011;25048;49.590;11.026;2023-09-19T15:18:53;3.42;;;1.20;;
29280;SDS011;25048;49.590;11.026;2023-09-19T15:21:21;1.57;;;1.10;;
29280;SDS011;25048;49.590;11.026;2023-09-19T15:23:50;3.58;;;2.60;;
29280;SDS011;25048;49.590;11.026;2023-09-19T15:26:17;3.62;;;1.25;;